| time (UTC) | temp F | wind direction | speed MPH | gust MPH | rain 1hr in | rain 24hr in | rain mn in | humidity % | barometer mb |
| 20260507010010 | 44 | 210 | 0.0 | 2.0 | 0.00 | 0.52 | 0.48 | 90 | 1009.5 |
| 20260507004517 | 44 | 232 | 1.0 | 1.0 | 0.00 | 0.52 | 0.48 | 90 | 1009.2 |
| 20260507003019 | 44 | 232 | 0.0 | 1.0 | 0.00 | 0.52 | 0.48 | 89 | 1009.1 |
| 20260507001525 | 45 | 227 | 0.0 | 1.0 | 0.00 | 0.52 | 0.48 | 89 | 1009.0 |
| 20260507000030 | 45 | 257 | 0.0 | 1.0 | 0.00 | 0.52 | 0.48 | 88 | 1008.8 |
| 20260506234512 | 45 | 257 | 0.0 | 1.0 | 0.00 | 0.52 | 0.48 | 87 | 1008.8 |
| 20260506233022 | 45 | 243 | 0.0 | 1.0 | 0.00 | 0.52 | 0.48 | 86 | 1008.7 |
| 20260506231521 | 46 | 269 | 0.0 | 2.0 | 0.00 | 0.52 | 0.48 | 85 | 1008.5 |
| 20260506230024 | 46 | 297 | 1.0 | 3.0 | 0.00 | 0.52 | 0.48 | 82 | 1008.3 |
| 20260506224525 | 47 | 311 | 0.0 | 2.0 | 0.00 | 0.52 | 0.48 | 81 | 1008.6 |
| 20260506223012 | 46 | 271 | 0.0 | 2.0 | 0.00 | 0.52 | 0.48 | 82 | 1008.5 |
| 20260506221518 | 46 | 293 | 1.0 | 4.0 | 0.00 | 0.52 | 0.48 | 82 | 1008.8 |
| 20260506220005 | 46 | 300 | 1.0 | 4.0 | 0.00 | 0.52 | 0.48 | 82 | 1008.8 |
| 20260506214504 | 46 | 310 | 1.0 | 3.0 | 0.00 | 0.52 | 0.48 | 82 | 1008.8 |
| 20260506213011 | 46 | 14 | 0.0 | 4.0 | 0.00 | 0.52 | 0.48 | 84 | 1008.7 |
| 20260506211516 | 46 | 39 | 1.0 | 3.0 | 0.00 | 0.52 | 0.48 | 85 | 1008.6 |
| 20260506210016 | 46 | 25 | 1.0 | 5.0 | 0.00 | 0.52 | 0.48 | 85 | 1008.7 |
| 20260506204506 | 46 | 337 | 2.0 | 4.0 | 0.00 | 0.52 | 0.48 | 85 | 1008.8 |
| 20260506203004 | 46 | 290 | 1.0 | 5.0 | 0.00 | 0.52 | 0.48 | 88 | 1008.8 |
| 20260506201514 | 46 | 308 | 2.0 | 4.0 | 0.01 | 0.52 | 0.48 | 87 | 1008.8 |
| 20260506200014 | 46 | 290 | 1.0 | 3.0 | 0.01 | 0.52 | 0.48 | 88 | 1008.6 |
| 20260506194519 | 46 | 355 | 0.0 | 4.0 | 0.01 | 0.52 | 0.48 | 88 | 1008.8 |
| 20260506193004 | 46 | 318 | 1.0 | 3.0 | 0.01 | 0.52 | 0.48 | 86 | 1008.8 |
| 20260506191508 | 46 | 325 | 0.0 | 3.0 | 0.00 | 0.52 | 0.47 | 88 | 1008.6 |
| 20260506190013 | 46 | 281 | 1.0 | 4.0 | 0.01 | 0.52 | 0.47 | 86 | 1008.6 |
| 20260506184519 | 46 | 25 | 2.0 | 4.0 | 0.02 | 0.58 | 0.47 | 86 | 1008.7 |
| 20260506183023 | 45 | 316 | 2.0 | 5.0 | 0.02 | 0.58 | 0.47 | 87 | 1008.8 |
| 20260506181506 | 45 | 331 | 2.0 | 6.0 | 0.03 | 0.58 | 0.47 | 87 | 1009.0 |
| 20260506180010 | 45 | 308 | 2.0 | 6.0 | 0.02 | 0.57 | 0.46 | 89 | 1009.3 |
| 20260506174514 | 45 | 52 | 2.0 | 6.0 | 0.02 | 0.56 | 0.45 | 90 | 1009.4 |
| 20260506173019 | 44 | 285 | 2.0 | 6.0 | 0.04 | 0.57 | 0.45 | 90 | 1009.6 |
| 20260506171536 | 44 | 4 | 2.0 | 5.0 | 0.04 | 0.56 | 0.44 | 90 | 1009.7 |
| 20260506170007 | 44 | 318 | 2.0 | 5.0 | 0.06 | 0.60 | 0.44 | 90 | 1009.6 |
| 20260506164508 | 44 | 19 | 2.0 | 5.0 | 0.07 | 0.66 | 0.43 | 90 | 1009.8 |
| 20260506163020 | 44 | 311 | 2.0 | 5.0 | 0.07 | 0.64 | 0.41 | 90 | 1010.1 |
| 20260506161529 | 44 | 300 | 1.0 | 3.0 | 0.08 | 0.63 | 0.40 | 92 | 1010.1 |
| 20260506160020 | 43 | 324 | 2.0 | 4.0 | 0.08 | 0.61 | 0.38 | 91 | 1010.1 |
| 20260506154529 | 43 | 297 | 1.0 | 2.0 | 0.08 | 0.58 | 0.36 | 92 | 1010.4 |
| 20260506153013 | 43 | 271 | 1.0 | 5.0 | 0.07 | 0.57 | 0.34 | 93 | 1010.3 |
| 20260506151515 | 43 | 292 | 1.0 | 3.0 | 0.06 | 0.55 | 0.32 | 91 | 1010.4 |
| 20260506150025 | 43 | 279 | 2.0 | 5.0 | 0.05 | 0.52 | 0.30 | 90 | 1010.2 |
| 20260506144526 | 43 | 330 | 1.0 | 4.0 | 0.04 | 0.51 | 0.28 | 92 | 1010.3 |
| 20260506143026 | 43 | 359 | 0.0 | 4.0 | 0.04 | 0.50 | 0.27 | 92 | 1010.4 |
| 20260506141510 | 43 | 316 | 1.0 | 4.0 | 0.04 | 0.49 | 0.26 | 92 | 1010.6 |
| 20260506140013 | 43 | 309 | 2.0 | 4.0 | 0.03 | 0.48 | 0.25 | 90 | 1010.5 |
| 20260506134546 | 43 | 360 | 1.0 | 5.0 | 0.03 | 0.47 | 0.24 | 91 | 1010.2 |
| 20260506133022 | 43 | 296 | 1.0 | 5.0 | 0.03 | 0.46 | 0.23 | 91 | 1010.2 |
| 20260506131529 | 43 | 307 | 2.0 | 4.0 | 0.03 | 0.45 | 0.22 | 91 | 1010.4 |
| 20260506130012 | 43 | 287 | 1.0 | 4.0 | 0.04 | 0.45 | 0.22 | 91 | 1010.4 |
| 20260506124517 | 43 | 295 | 2.0 | 6.0 | 0.05 | 0.44 | 0.21 | 90 | 1010.6 |
| 20260506123021 | 43 | 318 | 2.0 | 8.0 | 0.07 | 0.43 | 0.20 | 90 | 1010.8 |
| 20260506121523 | 43 | 301 | 2.0 | 6.0 | 0.08 | 0.44 | 0.19 | 90 | 1010.8 |
| 20260506120026 | 43 | 297 | 4.0 | 7.0 | 0.10 | 0.44 | 0.18 | 89 | 1010.8 |
| 20260506114533 | 43 | 298 | 3.0 | 7.0 | 0.09 | 0.42 | 0.16 | 89 | 1010.7 |
| 20260506113018 | 44 | 266 | 2.0 | 6.0 | 0.07 | 0.39 | 0.13 | 89 | 1010.7 |
| 20260506111523 | 44 | 286 | 0.0 | 3.0 | 0.06 | 0.37 | 0.11 | 89 | 1010.9 |
| 20260506110023 | 45 | 261 | 0.0 | 1.0 | 0.03 | 0.34 | 0.08 | 88 | 1010.7 |
| 20260506104527 | 45 | 234 | 0.0 | 1.0 | 0.02 | 0.33 | 0.07 | 87 | 1010.2 |
| 20260506103029 | 45 | 289 | 0.0 | 1.0 | 0.01 | 0.32 | 0.06 | 86 | 1009.7 |
| 20260506101518 | 46 | 256 | 0.0 | 1.0 | 0.00 | 0.31 | 0.05 | 84 | 1009.9 |
| 20260506100031 | 46 | 238 | 1.0 | 2.0 | 0.00 | 0.31 | 0.05 | 84 | 1010.3 |
| 20260506094524 | 46 | 208 | 1.0 | 3.0 | 0.00 | 0.31 | 0.05 | 84 | 1010.1 |
| 20260506093028 | 46 | 220 | 2.0 | 2.0 | 0.00 | 0.31 | 0.05 | 85 | 1009.9 |
| 20260506091528 | 46 | 206 | 1.0 | 3.0 | 0.00 | 0.31 | 0.05 | 85 | 1010.1 |
| 20260506090020 | 46 | 237 | 0.0 | 1.0 | 0.00 | 0.31 | 0.05 | 85 | 1010.0 |
| 20260506084525 | 46 | 225 | 1.0 | 2.0 | 0.00 | 0.31 | 0.05 | 85 | 1010.1 |
| 20260506083026 | 46 | 240 | 0.0 | 2.0 | 0.00 | 0.31 | 0.05 | 85 | 1010.1 |
| 20260506081531 | 47 | 228 | 1.0 | 4.0 | 0.01 | 0.31 | 0.05 | 83 | 1010.0 |
| 20260506073024 | 47 | 230 | 3.0 | 7.0 | 0.02 | 0.31 | 0.05 | 82 | 1009.9 |
| 20260506071527 | 47 | 194 | 3.0 | 5.0 | 0.01 | 0.30 | 0.04 | 85 | 1009.9 |
| 20260506061523 | 48 | 192 | 1.0 | 2.0 | 0.03 | 0.29 | 0.03 | 87 | 1009.7 |
| 20260506044512 | 49 | 207 | 2.0 | 5.0 | 0.01 | 0.26 | 0.00 | 82 | 1009.6 |
| 20260506043015 | 49 | 212 | 3.0 | 9.0 | 0.02 | 0.26 | 0.00 | 81 | 1009.2 |
| 20260506041518 | 49 | 184 | 3.0 | 6.0 | 0.03 | 0.26 | 0.00 | 82 | 1009.1 |
| 20260506040025 | 49 | 200 | 3.0 | 10.0 | 0.03 | 0.26 | 0.00 | 80 | 1009.0 |
| 20260506034520 | 50 | 217 | 6.0 | 11.0 | 0.02 | 0.25 | 0.25 | 78 | 1008.4 |
| 20260506033015 | 51 | 254 | 4.0 | 9.0 | 0.01 | 0.24 | 0.24 | 77 | 1008.1 |
| 20260506031519 | 52 | 212 | 4.0 | 12.0 | 0.01 | 0.23 | 0.23 | 74 | 1008.5 |
| 20260506030021 | 53 | 228 | 4.0 | 11.0 | 0.02 | 0.23 | 0.23 | 74 | 1008.1 |
| 20260506024534 | 53 | 232 | 6.0 | 12.0 | 0.02 | 0.23 | 0.23 | 79 | 1007.9 |
| 20260506023020 | 54 | 242 | 5.0 | 12.0 | 0.02 | 0.23 | 0.23 | 78 | 1007.9 |
| 20260506021513 | 55 | 265 | 6.0 | 13.0 | 0.01 | 0.22 | 0.22 | 75 | 1008.0 |
| 20260506020016 | 57 | 226 | 4.0 | 12.0 | 0.00 | 0.21 | 0.21 | 69 | 1007.9 |
| 20260506014522 | 59 | 233 | 5.0 | 14.0 | 0.00 | 0.21 | 0.21 | 63 | 1007.6 |
| 20260506013023 | 61 | 238 | 4.0 | 10.0 | 0.00 | 0.21 | 0.21 | 57 | 1007.3 |
| 20260506011554 | 61 | 87 | 4.0 | 12.0 | 0.00 | 0.21 | 0.21 | 55 | 1007.0 |